createdAt,value
2023-01-29T00:01:45.954Z,10.38
2023-01-29T00:06:47.997Z,10.18
2023-01-29T00:11:49.739Z,9.80
2023-01-29T00:16:51.447Z,10.02
2023-01-29T00:21:53.127Z,9.43
2023-01-29T00:26:54.760Z,9.73
2023-01-29T00:31:56.523Z,9.65
2023-01-29T00:37:04.891Z,11.18
2023-01-29T00:42:25.204Z,10.15
2023-01-29T00:47:36.566Z,9.63
2023-01-29T00:52:38.794Z,8.52
2023-01-29T00:57:40.447Z,8.40
2023-01-29T01:03:00.796Z,9.25
2023-01-29T01:08:02.496Z,8.98
2023-01-29T01:13:06.382Z,9.48
2023-01-29T01:18:08.061Z,9.13
2023-01-29T01:23:09.710Z,8.70
2023-01-29T01:28:11.391Z,8.05
2023-01-29T01:33:13.318Z,8.18
2023-01-29T01:38:14.951Z,7.80
2023-01-29T01:43:16.596Z,8.80
2023-01-29T01:48:24.217Z,8.02
2023-01-29T01:54:07.062Z,8.13
2023-01-29T01:59:12.111Z,8.60
2023-01-29T02:04:40.407Z,7.97
2023-01-29T02:09:46.957Z,7.53
2023-01-29T02:20:14.621Z,7.78
2023-01-29T02:25:41.154Z,7.00
2023-01-29T02:36:15.171Z,7.70
2023-01-29T02:41:40.564Z,8.13
2023-01-29T02:46:48.203Z,8.40
2023-01-29T02:52:15.118Z,8.20
2023-01-29T02:57:48.719Z,7.55
2023-01-29T03:03:12.882Z,7.90
2023-01-29T03:08:20.541Z,7.72
2023-01-29T03:13:32.245Z,8.20
2023-01-29T03:18:43.804Z,8.30
2023-01-29T03:24:03.973Z,8.35
2023-01-29T03:29:27.789Z,8.65
2023-01-29T03:34:35.287Z,8.32
2023-01-29T03:39:37.112Z,7.43
2023-01-29T03:44:49.033Z,7.20
2023-01-29T03:50:00.945Z,7.05
2023-01-29T03:55:15.584Z,7.95
2023-01-29T04:00:27.972Z,7.78
2023-01-29T04:05:34.586Z,7.38
2023-01-29T04:15:48.244Z,6.07
2023-01-29T04:20:50.253Z,6.55
2023-01-29T04:26:14.446Z,6.82
2023-01-29T04:31:17.019Z,6.32
2023-01-29T04:36:41.653Z,6.32
2023-01-29T04:41:54.400Z,6.50
2023-01-29T04:47:08.279Z,5.93
2023-01-29T04:52:19.805Z,6.07
2023-01-29T04:57:32.097Z,5.90
2023-01-29T05:02:36.353Z,5.90
2023-01-29T05:07:39.516Z,7.07
2023-01-29T05:12:45.921Z,6.90
2023-01-29T05:17:47.846Z,7.88
2023-01-29T05:22:49.630Z,7.85
2023-01-29T05:28:05.489Z,8.27
2023-01-29T05:33:16.896Z,7.90
2023-01-29T05:38:20.187Z,7.93
2023-01-29T05:43:25.418Z,7.38
2023-01-29T05:48:29.174Z,8.50
2023-01-29T05:53:31.742Z,7.70
2023-01-29T05:58:34.251Z,8.63
2023-01-29T06:03:35.887Z,7.93
2023-01-29T06:08:37.606Z,8.00
2023-01-29T06:13:39.643Z,8.00
2023-01-29T06:18:41.939Z,8.07
2023-01-29T06:23:43.568Z,7.88
2023-01-29T06:28:48.415Z,8.45
2023-01-29T06:33:50.073Z,7.13
2023-01-29T06:38:51.709Z,8.52
2023-01-29T06:43:53.444Z,7.05
2023-01-29T06:48:58.832Z,8.05
2023-01-29T06:54:00.563Z,8.30
2023-01-29T06:59:02.752Z,8.02
2023-01-29T07:04:04.604Z,7.82
2023-01-29T07:09:06.357Z,7.88
2023-01-29T07:14:08.227Z,7.25
2023-01-29T07:19:09.931Z,7.35
2023-01-29T07:24:11.725Z,7.78
2023-01-29T07:29:13.438Z,8.55
2023-01-29T07:34:15.097Z,8.75
2023-01-29T07:39:16.782Z,9.63
2023-01-29T07:44:18.485Z,13.93
2023-01-29T07:49:20.279Z,15.38
2023-01-29T07:54:21.947Z,13.23
2023-01-29T07:59:23.684Z,12.82
2023-01-29T08:04:25.558Z,14.18
2023-01-29T08:09:27.208Z,12.27
2023-01-29T08:14:28.863Z,12.02
2023-01-29T08:19:30.605Z,12.48
2023-01-29T08:24:47.444Z,10.85
2023-01-29T08:29:54.510Z,9.13
2023-01-29T08:34:56.178Z,7.50
2023-01-29T08:39:57.976Z,7.97
2023-01-29T08:44:59.728Z,7.32
2023-01-29T08:50:01.376Z,7.38
2023-01-29T08:55:03.173Z,7.50
2023-01-29T09:00:07.517Z,7.20
2023-01-29T09:05:10.300Z,7.45
2023-01-29T09:10:12.516Z,6.38
2023-01-29T09:15:14.286Z,6.63
2023-01-29T09:20:16.397Z,6.18
2023-01-29T09:25:18.616Z,6.40
2023-01-29T09:30:20.661Z,6.47
2023-01-29T09:35:23.825Z,6.25
2023-01-29T09:40:34.695Z,6.80
2023-01-29T09:45:37.190Z,6.55
2023-01-29T09:50:43.725Z,5.78
2023-01-29T09:56:02.811Z,5.93
2023-01-29T10:01:19.442Z,5.55
2023-01-29T10:06:47.966Z,5.22
2023-01-29T10:12:08.207Z,6.00
2023-01-29T10:17:35.058Z,5.22
2023-01-29T10:22:53.796Z,6.00
2023-01-29T10:27:58.830Z,6.13
2023-01-29T10:33:06.129Z,5.15
2023-01-29T10:38:33.851Z,6.25
2023-01-29T10:43:44.887Z,6.03
2023-01-29T10:49:00.535Z,6.70
2023-01-29T10:54:20.457Z,7.40
2023-01-29T10:59:31.111Z,6.45
2023-01-29T11:04:35.415Z,7.53
2023-01-29T11:09:47.961Z,6.20
2023-01-29T11:15:07.099Z,7.07
2023-01-29T11:20:27.245Z,6.57
2023-01-29T11:25:32.780Z,6.32
2023-01-29T11:30:43.429Z,6.50
2023-01-29T11:35:45.687Z,5.82
2023-01-29T11:40:47.962Z,5.85
2023-01-29T11:45:53.704Z,5.97
2023-01-29T11:51:00.684Z,4.77
2023-01-29T11:56:07.332Z,5.47
2023-01-29T12:06:22.859Z,6.22
2023-01-29T12:11:35.633Z,5.65
2023-01-29T12:17:03.567Z,5.88
2023-01-29T12:22:25.118Z,5.88
2023-01-29T12:27:59.432Z,5.72
2023-01-29T12:33:15.108Z,5.95
2023-01-29T12:38:23.023Z,6.50
2023-01-29T12:43:48.272Z,5.30
2023-01-29T12:48:51.313Z,5.72
2023-01-29T12:53:59.899Z,5.88
2023-01-29T12:59:10.123Z,6.35
2023-01-29T13:04:30.937Z,5.75
2023-01-29T13:09:35.454Z,5.10
2023-01-29T13:14:53.247Z,6.38
2023-01-29T13:20:00.806Z,6.05
2023-01-29T13:25:05.680Z,6.15
2023-01-29T13:30:08.929Z,6.20
2023-01-29T13:35:16.003Z,6.07
2023-01-29T13:40:25.943Z,6.05
2023-01-29T13:45:33.510Z,6.50
2023-01-29T13:50:41.508Z,6.78
2023-01-29T13:55:44.103Z,6.25
2023-01-29T14:00:48.765Z,6.50
2023-01-29T14:06:03.840Z,5.80
2023-01-29T14:11:21.155Z,6.43
2023-01-29T14:16:22.971Z,6.03
2023-01-29T14:21:38.204Z,6.32
2023-01-29T14:26:44.040Z,6.03
2023-01-29T14:31:56.318Z,6.17
2023-01-29T14:37:03.319Z,7.10
2023-01-29T14:42:36.604Z,7.05
2023-01-29T14:47:38.433Z,6.75
2023-01-29T14:52:43.477Z,6.90
2023-01-29T14:57:46.522Z,6.82
2023-01-29T15:03:01.427Z,7.57
2023-01-29T15:08:10.063Z,8.43
2023-01-29T15:13:15.664Z,7.32
2023-01-29T15:18:42.475Z,7.50
2023-01-29T15:23:45.188Z,7.63
2023-01-29T15:29:03.571Z,7.82
2023-01-29T15:34:07.787Z,6.72
2023-01-29T15:39:09.560Z,5.93
2023-01-29T15:44:17.515Z,6.05
2023-01-29T15:49:29.559Z,4.57
2023-01-29T15:54:34.289Z,6.47
2023-01-29T15:59:43.880Z,7.15
2023-01-29T16:04:46.758Z,7.05
2023-01-29T16:09:50.093Z,6.60
2023-01-29T16:14:56.712Z,7.68
2023-01-29T16:25:20.370Z,7.30
2023-01-29T16:30:28.806Z,6.70
2023-01-29T16:35:33.835Z,7.57
2023-01-29T16:40:38.374Z,7.38
2023-01-29T16:45:40.854Z,7.82
2023-01-29T16:50:54.312Z,8.27
2023-01-29T16:56:05.845Z,8.35
2023-01-29T17:01:11.682Z,8.50
2023-01-29T17:06:21.836Z,7.70
2023-01-29T17:11:40.305Z,7.40
2023-01-29T17:17:02.172Z,6.70
2023-01-29T17:22:07.848Z,7.57
2023-01-29T17:27:22.092Z,7.03
2023-01-29T17:32:43.949Z,6.88
2023-01-29T17:37:49.623Z,7.38
2023-01-29T17:42:52.109Z,7.47
2023-01-29T17:47:54.343Z,6.72
2023-01-29T17:52:56.925Z,6.50
2023-01-29T17:57:59.103Z,6.88
2023-01-29T18:03:02.624Z,6.95
2023-01-29T18:08:05.404Z,7.07
2023-01-29T18:13:07.916Z,6.93
2023-01-29T18:18:23.094Z,7.65
2023-01-29T18:23:26.053Z,7.43
2023-01-29T18:28:28.513Z,7.47
2023-01-29T18:33:31.640Z,6.90
2023-01-29T18:38:34.135Z,6.65
2023-01-29T18:43:37.944Z,6.32
2023-01-29T18:48:43.850Z,7.35
2023-01-29T18:53:52.267Z,6.50
2023-01-29T18:58:57.777Z,5.72
2023-01-29T19:04:03.917Z,6.63
2023-01-29T19:09:06.209Z,7.10
2023-01-29T19:14:09.445Z,6.68
2023-01-29T19:19:12.210Z,7.10
2023-01-29T19:24:14.931Z,6.45
2023-01-29T19:29:17.892Z,6.65
2023-01-29T19:34:20.524Z,6.82
2023-01-29T19:39:23.077Z,7.32
2023-01-29T19:44:26.126Z,6.43
2023-01-29T19:49:31.480Z,8.07
2023-01-29T19:54:34.134Z,7.07
2023-01-29T19:59:36.706Z,7.57
2023-01-29T20:04:40.394Z,6.57
2023-01-29T20:09:43.133Z,7.07
2023-01-29T20:14:49.529Z,7.05
2023-01-29T20:19:51.970Z,7.28
2023-01-29T20:24:56.848Z,7.25
2023-01-29T20:30:00.758Z,7.57
2023-01-29T20:35:03.876Z,8.02
2023-01-29T20:40:06.993Z,7.97
2023-01-29T20:45:11.518Z,7.85
2023-01-29T20:50:16.347Z,7.07
2023-01-29T20:55:19.250Z,12.02
2023-01-29T21:00:22.826Z,11.25
2023-01-29T21:05:25.750Z,10.38
2023-01-29T21:10:28.426Z,8.85
2023-01-29T21:15:31.705Z,9.18
2023-01-29T21:20:35.359Z,8.00
2023-01-29T21:25:38.887Z,7.22
2023-01-29T21:30:40.769Z,6.80
2023-01-29T21:35:42.575Z,7.60
2023-01-29T21:40:44.585Z,6.90
2023-01-29T21:45:47.739Z,7.10
2023-01-29T21:50:49.542Z,7.72
2023-01-29T21:55:51.982Z,7.88
2023-01-29T22:00:53.677Z,7.05
2023-01-29T22:05:55.517Z,7.45
2023-01-29T22:10:57.237Z,7.82
2023-01-29T22:15:59.001Z,7.35
2023-01-29T22:21:02.971Z,8.48
2023-01-29T22:26:06.754Z,7.32
2023-01-29T22:31:08.430Z,7.13
2023-01-29T22:36:10.375Z,8.07
2023-01-29T22:41:12.132Z,7.78
2023-01-29T22:46:14.127Z,6.80
2023-01-29T22:51:15.944Z,7.38
2023-01-29T22:56:18.907Z,7.10
2023-01-29T23:01:22.758Z,7.68
2023-01-29T23:06:24.670Z,6.85
2023-01-29T23:11:26.317Z,7.68
2023-01-29T23:16:28.703Z,7.10
2023-01-29T23:21:30.588Z,6.90
2023-01-29T23:26:50.703Z,7.05
2023-01-29T23:31:52.431Z,7.85
2023-01-29T23:36:54.504Z,6.20
2023-01-29T23:41:56.238Z,7.78
2023-01-29T23:46:58.018Z,7.28
2023-01-29T23:51:59.741Z,7.60
2023-01-29T23:57:01.438Z,7.00
